createdAt,value
2023-05-05T00:00:36.652Z,6.13
2023-05-05T00:03:25.077Z,6.90
2023-05-05T00:06:12.254Z,6.82
2023-05-05T00:09:01.028Z,7.15
2023-05-05T00:11:48.038Z,6.40
2023-05-05T00:14:35.391Z,6.40
2023-05-05T00:17:22.534Z,6.13
2023-05-05T00:20:10.436Z,6.50
2023-05-05T00:22:57.664Z,6.43
2023-05-05T00:25:46.094Z,6.28
2023-05-05T00:28:33.265Z,6.32
2023-05-05T00:31:20.320Z,7.22
2023-05-05T00:34:07.754Z,6.55
2023-05-05T00:36:54.813Z,7.30
2023-05-05T00:39:42.498Z,6.97
2023-05-05T00:42:41.069Z,7.25
2023-05-05T00:45:28.586Z,7.30
2023-05-05T00:48:19.073Z,7.28
2023-05-05T00:51:09.617Z,6.88
2023-05-05T00:53:56.911Z,7.78
2023-05-05T00:56:43.816Z,7.28
2023-05-05T00:59:34.075Z,7.68
2023-05-05T01:02:22.902Z,7.35
2023-05-05T01:05:11.159Z,7.25
2023-05-05T01:08:15.705Z,6.85
2023-05-05T01:11:09.060Z,7.22
2023-05-05T01:14:07.321Z,7.00
2023-05-05T01:17:00.410Z,7.10
2023-05-05T01:20:10.609Z,6.90
2023-05-05T01:23:04.185Z,7.05
2023-05-05T01:26:07.544Z,7.70
2023-05-05T01:29:08.786Z,7.60
2023-05-05T01:32:01.328Z,7.03
2023-05-05T01:34:55.221Z,6.95
2023-05-05T01:37:50.534Z,8.07
2023-05-05T01:40:43.696Z,7.57
2023-05-05T01:46:22.973Z,7.28
2023-05-05T01:49:14.657Z,6.97
2023-05-05T01:52:03.822Z,8.05
2023-05-05T01:54:52.361Z,7.72
2023-05-05T01:57:42.849Z,7.07
2023-05-05T02:00:31.817Z,6.95
2023-05-05T02:03:20.380Z,7.55
2023-05-05T02:06:11.585Z,7.93
2023-05-05T02:09:00.127Z,8.00
2023-05-05T02:11:47.313Z,8.30
2023-05-05T02:14:35.831Z,7.40
2023-05-05T02:17:24.442Z,8.20
2023-05-05T02:20:13.994Z,7.82
2023-05-05T02:23:04.792Z,8.27
2023-05-05T02:25:56.913Z,7.93
2023-05-05T02:28:49.970Z,8.68
2023-05-05T02:31:45.356Z,8.77
2023-05-05T02:34:38.164Z,8.10
2023-05-05T02:37:31.339Z,8.70
2023-05-05T02:40:25.775Z,7.80
2023-05-05T02:43:19.581Z,7.75
2023-05-05T02:46:08.196Z,8.35
2023-05-05T02:48:59.762Z,8.85
2023-05-05T02:51:47.463Z,8.18
2023-05-05T02:54:42.053Z,8.57
2023-05-05T02:57:40.152Z,7.75
2023-05-05T03:00:35.644Z,8.90
2023-05-05T03:03:27.728Z,8.85
2023-05-05T03:06:19.332Z,8.10
2023-05-05T03:09:12.100Z,9.05
2023-05-05T03:12:03.920Z,8.55
2023-05-05T03:15:00.319Z,9.07
2023-05-05T03:17:51.530Z,9.73
2023-05-05T03:20:40.836Z,9.05
2023-05-05T03:23:30.973Z,9.77
2023-05-05T03:26:19.661Z,9.50
2023-05-05T03:29:08.099Z,9.75
2023-05-05T03:32:01.149Z,9.38
2023-05-05T03:34:49.312Z,8.70
2023-05-05T03:37:36.225Z,10.45
2023-05-05T03:40:36.387Z,9.27
2023-05-05T03:43:32.243Z,8.60
2023-05-05T03:46:19.399Z,9.65
2023-05-05T03:49:09.916Z,8.90
2023-05-05T03:51:59.475Z,8.85
2023-05-05T03:54:47.499Z,9.32
2023-05-05T03:57:35.549Z,8.60
2023-05-05T04:00:22.865Z,8.30
2023-05-05T04:03:10.405Z,9.13
2023-05-05T04:05:59.290Z,9.52
2023-05-05T04:08:46.627Z,9.35
2023-05-05T04:11:33.714Z,9.02
2023-05-05T04:14:21.531Z,9.45
2023-05-05T04:17:08.771Z,9.75
2023-05-05T04:19:56.344Z,9.30
2023-05-05T04:22:44.431Z,10.50
2023-05-05T04:25:31.740Z,9.45
2023-05-05T04:28:20.316Z,10.48
2023-05-05T04:31:09.368Z,9.35
2023-05-05T04:33:58.909Z,9.43
2023-05-05T04:36:46.296Z,9.57
2023-05-05T04:39:35.511Z,9.82
2023-05-05T04:42:23.943Z,10.18
2023-05-05T04:45:11.876Z,9.93
2023-05-05T04:48:00.544Z,9.68
2023-05-05T04:50:48.088Z,11.20
2023-05-05T04:53:35.024Z,10.00
2023-05-05T04:56:23.900Z,10.68
2023-05-05T04:59:11.314Z,10.25
2023-05-05T05:01:58.462Z,9.55
2023-05-05T05:04:45.346Z,10.40
2023-05-05T05:07:32.364Z,9.65
2023-05-05T05:10:19.680Z,10.77
2023-05-05T05:13:11.312Z,8.10
2023-05-05T05:16:00.263Z,9.57
2023-05-05T05:18:47.597Z,9.57
2023-05-05T05:21:35.011Z,10.05
2023-05-05T05:24:22.853Z,9.02
2023-05-05T05:27:10.451Z,8.80
2023-05-05T05:30:02.291Z,8.27
2023-05-05T05:32:51.446Z,7.75
2023-05-05T05:35:38.751Z,7.30
2023-05-05T05:38:26.499Z,8.75
2023-05-05T05:41:17.368Z,7.82
2023-05-05T05:44:04.857Z,7.72
2023-05-05T05:46:53.484Z,6.35
2023-05-05T05:49:40.481Z,6.22
2023-05-05T05:52:27.527Z,6.15
2023-05-05T05:55:14.964Z,6.65
2023-05-05T05:58:02.077Z,6.45
2023-05-05T06:00:50.107Z,5.57
2023-05-05T06:03:38.692Z,5.90
2023-05-05T06:06:28.016Z,4.97
2023-05-05T06:09:15.049Z,5.93
2023-05-05T06:12:04.058Z,5.28
2023-05-05T06:14:51.845Z,5.32
2023-05-05T06:17:39.309Z,5.05
2023-05-05T06:20:28.488Z,4.85
2023-05-05T06:23:16.046Z,5.60
2023-05-05T06:26:08.571Z,5.72
2023-05-05T06:28:56.282Z,5.25
2023-05-05T06:31:43.226Z,4.72
2023-05-05T06:34:30.813Z,4.30
2023-05-05T06:37:19.688Z,4.38
2023-05-05T06:40:09.018Z,4.13
2023-05-05T06:42:57.357Z,4.00
2023-05-05T06:45:50.557Z,4.22
2023-05-05T06:48:37.594Z,3.63
2023-05-05T06:51:24.926Z,3.42
2023-05-05T06:54:13.452Z,3.28
2023-05-05T06:57:00.826Z,3.58
2023-05-05T06:59:48.285Z,3.65
2023-05-05T07:02:35.611Z,3.42
2023-05-05T07:05:22.642Z,3.03
2023-05-05T07:08:11.435Z,3.20
2023-05-05T07:11:01.199Z,3.38
2023-05-05T07:13:49.382Z,2.80
2023-05-05T07:16:37.422Z,2.97
2023-05-05T07:19:24.979Z,3.08
2023-05-05T07:22:12.628Z,3.22
2023-05-05T07:25:00.269Z,3.22
2023-05-05T07:27:48.828Z,3.10
2023-05-05T07:30:35.884Z,3.15
2023-05-05T07:33:24.025Z,3.10
2023-05-05T07:36:11.232Z,3.83
2023-05-05T07:38:58.466Z,3.13
2023-05-05T07:41:46.056Z,3.05
2023-05-05T07:44:35.453Z,2.97
2023-05-05T07:47:22.432Z,3.70
2023-05-05T07:50:10.042Z,3.40
2023-05-05T07:53:10.773Z,3.30
2023-05-05T07:56:02.270Z,3.47
2023-05-05T07:58:49.555Z,3.00
2023-05-05T08:01:38.071Z,3.15
2023-05-05T08:04:25.071Z,3.05
2023-05-05T08:07:12.747Z,3.25
2023-05-05T08:09:59.792Z,3.17
2023-05-05T08:12:48.314Z,3.10
2023-05-05T08:15:35.803Z,3.10
2023-05-05T08:18:24.671Z,3.20
2023-05-05T08:21:13.253Z,2.97
2023-05-05T08:24:00.619Z,2.90
2023-05-05T08:26:48.205Z,2.90
2023-05-05T08:29:35.584Z,2.80
2023-05-05T08:32:22.784Z,2.53
2023-05-05T08:35:12.118Z,3.10
2023-05-05T08:38:00.188Z,3.30
2023-05-05T08:40:47.875Z,3.05
2023-05-05T08:43:36.578Z,3.50
2023-05-05T08:46:25.130Z,3.92
2023-05-05T08:49:16.674Z,3.00
2023-05-05T08:52:10.523Z,3.72
2023-05-05T08:55:06.194Z,3.47
2023-05-05T08:57:56.431Z,3.05
2023-05-05T09:00:46.035Z,3.03
2023-05-05T09:03:34.616Z,2.97
2023-05-05T09:06:24.498Z,2.63
2023-05-05T09:09:13.588Z,3.20
2023-05-05T09:12:02.184Z,3.10
2023-05-05T09:14:49.451Z,2.78
2023-05-05T09:17:37.201Z,3.20
2023-05-05T09:20:24.360Z,2.75
2023-05-05T09:23:13.164Z,2.72
2023-05-05T09:26:10.069Z,2.75
2023-05-05T09:28:58.504Z,2.50
2023-05-05T09:31:45.912Z,2.47
2023-05-05T09:34:36.294Z,2.33
2023-05-05T09:37:33.203Z,2.88
2023-05-05T09:40:21.466Z,2.85
2023-05-05T09:43:11.293Z,2.60
2023-05-05T09:46:08.592Z,2.58
2023-05-05T09:48:56.052Z,2.70
2023-05-05T09:51:43.424Z,2.65
2023-05-05T09:54:34.169Z,2.55
2023-05-05T09:57:30.814Z,2.75
2023-05-05T10:00:19.992Z,2.90
2023-05-05T10:03:07.444Z,2.47
2023-05-05T10:05:55.921Z,2.80
2023-05-05T10:08:43.347Z,3.65
2023-05-05T10:11:31.156Z,2.50
2023-05-05T10:14:19.951Z,6.45
2023-05-05T10:17:11.315Z,3.42
2023-05-05T10:20:00.221Z,2.40
2023-05-05T10:22:54.885Z,2.60
2023-05-05T10:25:46.715Z,2.38
2023-05-05T10:28:36.026Z,2.10
2023-05-05T10:31:30.871Z,2.28
2023-05-05T10:34:29.858Z,2.42
2023-05-05T10:37:19.244Z,2.33
2023-05-05T10:40:08.349Z,2.80
2023-05-05T10:42:56.495Z,2.60
2023-05-05T10:45:44.523Z,2.38
2023-05-05T10:48:38.384Z,2.67
2023-05-05T10:51:40.330Z,2.50
2023-05-05T10:54:35.748Z,2.40
2023-05-05T10:57:28.071Z,2.20
2023-05-05T11:00:45.012Z,2.83
2023-05-05T11:03:32.085Z,2.63
2023-05-05T11:06:19.523Z,2.72
2023-05-05T11:09:30.220Z,2.80
2023-05-05T11:12:17.631Z,2.70
2023-05-05T11:15:42.012Z,2.70
2023-05-05T11:18:34.255Z,3.08
2023-05-05T11:21:21.594Z,2.40
2023-05-05T11:24:30.987Z,2.60
2023-05-05T11:27:18.148Z,2.65
2023-05-05T11:30:08.511Z,2.53
2023-05-05T11:33:25.992Z,2.78
2023-05-05T11:36:14.438Z,2.65
2023-05-05T11:39:09.728Z,2.70
2023-05-05T11:42:16.501Z,2.70
2023-05-05T11:45:20.140Z,2.60
2023-05-05T11:48:25.920Z,2.72
2023-05-05T11:51:12.776Z,3.08
2023-05-05T11:54:00.206Z,2.65
2023-05-05T11:56:51.979Z,2.83
2023-05-05T11:59:53.069Z,3.03
2023-05-05T12:02:40.225Z,2.47
2023-05-05T12:05:27.356Z,2.58
2023-05-05T12:08:14.988Z,3.00
2023-05-05T12:11:04.660Z,2.90
2023-05-05T12:13:51.632Z,2.30
2023-05-05T12:16:41.002Z,3.60
2023-05-05T12:19:33.124Z,3.60
2023-05-05T12:22:22.587Z,3.33
2023-05-05T12:25:10.349Z,2.80
2023-05-05T12:27:57.562Z,2.78
2023-05-05T12:30:44.849Z,2.88
2023-05-05T12:33:40.832Z,2.90
2023-05-05T12:36:30.398Z,2.85
2023-05-05T12:39:17.519Z,2.90
2023-05-05T12:42:05.380Z,2.67
2023-05-05T12:44:52.877Z,2.55
2023-05-05T12:47:44.306Z,2.58
2023-05-05T12:50:33.813Z,2.67
2023-05-05T12:53:23.113Z,3.08
2023-05-05T12:56:33.377Z,2.55
2023-05-05T12:59:35.584Z,2.53
2023-05-05T13:02:34.837Z,2.85
2023-05-05T13:05:33.652Z,2.55
2023-05-05T13:08:21.023Z,2.60
2023-05-05T13:11:08.184Z,2.72
2023-05-05T13:13:55.417Z,2.40
2023-05-05T13:16:42.432Z,2.67
2023-05-05T13:19:30.001Z,2.40
2023-05-05T13:22:18.626Z,2.30
2023-05-05T13:25:06.111Z,2.70
2023-05-05T13:27:53.302Z,2.90
2023-05-05T13:30:42.118Z,2.88
2023-05-05T13:33:29.372Z,3.00
2023-05-05T13:36:16.583Z,3.08
2023-05-05T13:39:05.083Z,2.83
2023-05-05T13:41:52.322Z,2.83
2023-05-05T13:44:39.823Z,3.45
2023-05-05T13:47:27.426Z,2.45
2023-05-05T13:50:14.849Z,2.88
2023-05-05T13:53:02.005Z,3.28
2023-05-05T13:55:50.697Z,3.00
2023-05-05T13:58:38.061Z,2.90
2023-05-05T14:01:26.081Z,3.65
2023-05-05T14:04:13.690Z,3.83
2023-05-05T14:07:01.434Z,3.40
2023-05-05T14:09:49.247Z,3.95
2023-05-05T14:12:38.194Z,3.28
2023-05-05T14:15:25.411Z,3.40
2023-05-05T14:18:12.618Z,3.60
2023-05-05T14:20:59.948Z,3.33
2023-05-05T14:23:47.315Z,3.90
2023-05-05T14:26:34.307Z,3.22
2023-05-05T14:29:22.742Z,3.47
2023-05-05T14:32:10.121Z,3.10
2023-05-05T14:34:57.053Z,2.83
2023-05-05T14:37:44.307Z,3.15
2023-05-05T14:40:31.459Z,3.55
2023-05-05T14:43:18.802Z,3.13
2023-05-05T14:46:08.232Z,3.75
2023-05-05T14:48:55.547Z,3.30
2023-05-05T14:51:43.000Z,3.78
2023-05-05T14:54:30.361Z,3.70
2023-05-05T14:57:17.278Z,4.70
2023-05-05T15:00:05.338Z,3.42
2023-05-05T15:02:54.174Z,3.72
2023-05-05T15:05:42.371Z,4.30
2023-05-05T15:08:29.980Z,4.68
2023-05-05T15:11:17.014Z,4.60
2023-05-05T15:14:05.644Z,4.90
2023-05-05T15:16:53.213Z,4.03
2023-05-05T15:19:42.105Z,4.05
2023-05-05T15:22:29.011Z,4.40
2023-05-05T15:25:16.599Z,4.78
2023-05-05T15:28:03.753Z,5.20
2023-05-05T15:30:50.832Z,5.50
2023-05-05T15:33:38.203Z,5.60
2023-05-05T15:36:27.105Z,5.55
2023-05-05T15:39:14.324Z,6.03
2023-05-05T15:42:03.865Z,5.18
2023-05-05T15:44:50.888Z,4.90
2023-05-05T15:47:38.289Z,5.03
2023-05-05T15:50:25.563Z,4.60
2023-05-05T15:53:14.079Z,5.30
2023-05-05T15:56:01.358Z,5.32
2023-05-05T15:58:48.779Z,5.53
2023-05-05T16:01:36.617Z,5.20
2023-05-05T16:04:23.918Z,5.28
2023-05-05T16:07:11.640Z,6.32
2023-05-05T16:09:59.946Z,5.43
2023-05-05T16:12:47.131Z,5.43
2023-05-05T16:15:35.398Z,5.57
2023-05-05T16:18:22.358Z,5.32
2023-05-05T16:21:09.393Z,5.75
2023-05-05T16:23:57.116Z,6.28
2023-05-05T16:26:45.757Z,5.28
2023-05-05T16:29:33.210Z,5.32
2023-05-05T16:32:20.216Z,5.78
2023-05-05T16:35:09.476Z,5.70
2023-05-05T16:37:56.627Z,5.90
2023-05-05T16:40:43.770Z,5.57
2023-05-05T16:43:32.392Z,5.30
2023-05-05T16:46:19.722Z,5.85
2023-05-05T16:49:07.073Z,4.85
2023-05-05T16:51:54.491Z,5.50
2023-05-05T16:54:41.967Z,5.50
2023-05-05T16:57:29.257Z,6.03
2023-05-05T17:00:18.227Z,6.68
2023-05-05T17:03:08.196Z,6.68
2023-05-05T17:05:55.350Z,7.38
2023-05-05T17:08:42.432Z,6.93
2023-05-05T17:11:29.628Z,6.55
2023-05-05T17:14:16.601Z,6.28
2023-05-05T17:17:05.149Z,6.45
2023-05-05T17:19:52.371Z,6.03
2023-05-05T17:22:39.356Z,6.13
2023-05-05T17:25:27.221Z,5.97
2023-05-05T17:28:14.915Z,6.53
2023-05-05T17:31:02.224Z,6.38
2023-05-05T17:33:50.595Z,6.10
2023-05-05T17:36:41.121Z,6.00
2023-05-05T17:39:28.155Z,5.60
2023-05-05T17:42:16.823Z,6.22
2023-05-05T17:45:03.853Z,6.22
2023-05-05T17:47:51.060Z,5.40
2023-05-05T17:50:41.361Z,5.35
2023-05-05T17:53:30.530Z,5.30
2023-05-05T17:56:21.060Z,5.75
2023-05-05T17:59:08.993Z,5.57
2023-05-05T18:01:55.821Z,5.80
2023-05-05T18:04:42.877Z,6.15
2023-05-05T18:07:32.016Z,5.28
2023-05-05T18:10:19.227Z,5.47
2023-05-05T18:13:06.343Z,5.72
2023-05-05T18:15:53.745Z,6.13
2023-05-05T18:18:41.852Z,5.50
2023-05-05T18:21:30.071Z,5.57
2023-05-05T18:24:21.735Z,5.93
2023-05-05T18:27:09.160Z,6.20
2023-05-05T18:29:56.192Z,5.85
2023-05-05T18:32:43.757Z,5.30
2023-05-05T18:35:32.072Z,5.38
2023-05-05T18:38:19.703Z,5.40
2023-05-05T18:41:08.352Z,5.75
2023-05-05T18:43:55.291Z,5.70
2023-05-05T18:46:43.124Z,6.07
2023-05-05T18:49:31.529Z,6.50
2023-05-05T18:52:18.834Z,6.22
2023-05-05T18:55:06.071Z,6.57
2023-05-05T18:57:54.381Z,3.70
2023-05-05T19:00:41.906Z,2.40
2023-05-05T19:03:29.250Z,3.67
2023-05-05T19:06:17.621Z,7.43
2023-05-05T19:09:04.902Z,3.30
2023-05-05T19:11:52.091Z,3.33
2023-05-05T19:14:40.747Z,2.78
2023-05-05T19:17:28.149Z,3.10
2023-05-05T19:20:15.388Z,3.35
2023-05-05T19:23:04.490Z,3.40
2023-05-05T19:25:52.529Z,3.70
2023-05-05T19:28:39.762Z,3.38
2023-05-05T19:31:30.905Z,3.85
2023-05-05T19:34:18.128Z,3.80
2023-05-05T19:37:05.333Z,3.70
2023-05-05T19:39:52.429Z,3.50
2023-05-05T19:42:39.614Z,3.67
2023-05-05T19:45:26.971Z,3.92
2023-05-05T19:48:16.199Z,5.47
2023-05-05T19:51:03.838Z,3.50
2023-05-05T19:53:50.891Z,3.45
2023-05-05T19:56:37.902Z,2.90
2023-05-05T19:59:25.300Z,3.33
2023-05-05T20:02:15.621Z,2.67
2023-05-05T20:05:04.280Z,2.70
2023-05-05T20:07:51.824Z,2.53
2023-05-05T20:10:39.303Z,2.65
2023-05-05T20:13:27.211Z,2.35
2023-05-05T20:16:15.002Z,2.10
2023-05-05T20:19:02.505Z,2.78
2023-05-05T20:21:51.226Z,2.15
2023-05-05T20:24:38.326Z,2.67
2023-05-05T20:27:26.740Z,2.60
2023-05-05T20:30:15.630Z,2.17
2023-05-05T20:33:02.687Z,2.60
2023-05-05T20:35:49.690Z,2.70
2023-05-05T20:38:38.054Z,3.38
2023-05-05T20:41:25.012Z,2.13
2023-05-05T20:44:12.182Z,2.33
2023-05-05T20:46:59.362Z,2.47
2023-05-05T20:49:46.521Z,2.42
2023-05-05T20:52:35.726Z,2.60
2023-05-05T20:55:24.484Z,1.98
2023-05-05T20:58:11.655Z,2.17
2023-05-05T21:00:58.904Z,2.17
2023-05-05T21:03:46.042Z,2.20
2023-05-05T21:06:33.678Z,3.20
2023-05-05T21:09:21.530Z,2.60
2023-05-05T21:12:09.926Z,2.50
2023-05-05T21:14:58.926Z,2.40
2023-05-05T21:17:46.535Z,2.35
2023-05-05T21:20:33.716Z,2.20
2023-05-05T21:23:20.900Z,2.78
2023-05-05T21:26:07.798Z,2.58
2023-05-05T21:28:56.127Z,2.92
2023-05-05T21:31:43.281Z,2.97
2023-05-05T21:34:30.675Z,3.58
2023-05-05T21:37:18.010Z,3.22
2023-05-05T21:40:05.962Z,3.10
2023-05-05T21:42:52.997Z,2.65
2023-05-05T21:45:41.656Z,3.00
2023-05-05T21:48:28.596Z,2.53
2023-05-05T21:51:15.687Z,2.97
2023-05-05T21:54:02.767Z,2.67
2023-05-05T21:56:50.074Z,3.08
2023-05-05T21:59:37.009Z,2.97
2023-05-05T22:02:25.650Z,2.85
2023-05-05T22:05:13.359Z,2.75
2023-05-05T22:08:00.928Z,3.00
2023-05-05T22:10:48.052Z,3.22
2023-05-05T22:13:35.437Z,3.25
2023-05-05T22:16:22.433Z,3.65
2023-05-05T22:19:10.924Z,3.80
2023-05-05T22:21:58.840Z,4.03
2023-05-05T22:24:46.076Z,3.85
2023-05-05T22:27:33.068Z,3.88
2023-05-05T22:30:19.977Z,3.30
2023-05-05T22:33:07.264Z,3.83
2023-05-05T22:35:55.856Z,3.65
2023-05-05T22:38:42.996Z,3.50
2023-05-05T22:41:30.052Z,3.97
2023-05-05T22:44:17.211Z,3.80
2023-05-05T22:47:04.912Z,3.80
2023-05-05T22:49:52.089Z,4.18
2023-05-05T22:52:40.300Z,3.80
2023-05-05T22:55:27.429Z,3.92
2023-05-05T22:58:14.558Z,4.20
2023-05-05T23:01:01.581Z,4.65
2023-05-05T23:03:49.076Z,4.70
2023-05-05T23:06:36.192Z,4.30
2023-05-05T23:09:24.499Z,4.75
2023-05-05T23:12:11.750Z,4.80
2023-05-05T23:14:58.927Z,5.22
2023-05-05T23:17:46.005Z,4.93
2023-05-05T23:20:33.464Z,4.90
2023-05-05T23:23:20.490Z,5.38
2023-05-05T23:26:09.040Z,4.65
2023-05-05T23:28:56.505Z,5.68
2023-05-05T23:31:43.856Z,4.82
2023-05-05T23:34:31.422Z,4.43
2023-05-05T23:37:18.605Z,4.78
2023-05-05T23:40:07.387Z,5.22
2023-05-05T23:42:55.960Z,4.88
2023-05-05T23:45:43.163Z,5.85
2023-05-05T23:48:29.948Z,7.93
2023-05-05T23:51:16.946Z,6.20
2023-05-05T23:54:04.327Z,5.03
2023-05-05T23:56:51.537Z,5.45
2023-05-05T23:59:40.926Z,6.85
